Time;durP1;ratioP1;P1;durP2;ratioP2;P2;SDS_P1;SDS_P2;PMS_P1;PMS_P2;Temp;Humidity;BMP_temperature;BMP_pressure;BME280_temperature;BME280_humidity;BME280_pressure;Samples;Min_cycle;Max_cycle;Signal;HPM_P1;HPM_P2
2021/08/23 00:00:58;;;;;;;6.68;2.72;;;17.30;99.90;;;;;;5012363;28;20137;-76
2021/08/23 00:03:24;;;;;;;4.45;2.30;;;17.30;99.90;;;;;;5006177;28;20125;-74
2021/08/23 00:05:49;;;;;;;5.15;2.60;;;17.30;99.90;;;;;;5005203;28;20048;-75
2021/08/23 00:08:16;;;;;;;5.05;2.42;;;17.40;99.90;;;;;;4992770;28;20386;-75
2021/08/23 00:10:42;;;;;;;4.18;2.20;;;17.40;99.90;;;;;;5002585;28;20025;-77
2021/08/23 00:13:08;;;;;;;4.05;2.30;;;17.60;99.90;;;;;;4995813;28;20025;-75
2021/08/23 00:15:35;;;;;;;8.73;3.60;;;17.40;99.90;;;;;;5013984;28;20033;-74
2021/08/23 00:18:01;;;;;;;9.20;5.18;;;17.40;99.90;;;;;;5002182;28;20085;-75
2021/08/23 00:20:42;;;;;;;10.40;2.33;;;17.70;99.90;;;;;;4990335;28;20050;-74
2021/08/23 00:23:11;;;;;;;7.10;2.60;;;18.70;99.90;;;;;;5014114;28;20030;-76
2021/08/23 00:25:37;;;;;;;7.80;2.90;;;17.50;99.90;;;;;;5013353;28;20041;-75
2021/08/23 00:28:03;;;;;;;4.88;2.63;;;17.50;99.90;;;;;;4998536;28;20041;-74
2021/08/23 00:30:29;;;;;;;9.13;4.60;;;17.50;99.90;;;;;;4993598;28;20026;-75
2021/08/23 00:32:55;;;;;;;6.35;2.13;;;17.40;99.90;;;;;;4997530;28;20022;-75
2021/08/23 00:35:21;;;;;;;3.63;2.20;;;17.50;99.90;;;;;;5001374;28;20029;-75
2021/08/23 00:37:47;;;;;;;4.70;2.45;;;17.40;99.90;;;;;;5006400;28;20052;-75
2021/08/23 00:40:13;;;;;;;5.28;2.40;;;17.40;99.90;;;;;;5002500;28;20029;-76
2021/08/23 00:42:39;;;;;;;4.40;2.40;;;17.40;99.90;;;;;;5016413;28;20403;-76
2021/08/23 00:45:06;;;;;;;3.30;1.92;;;17.40;99.90;;;;;;4994398;28;20640;-76
2021/08/23 00:47:31;;;;;;;6.05;2.28;;;17.40;99.90;;;;;;5010274;28;20591;-76
2021/08/23 00:49:57;;;;;;;6.85;2.20;;;17.30;99.90;;;;;;5020043;28;20036;-75
2021/08/23 00:52:24;;;;;;;4.68;2.03;;;17.30;99.90;;;;;;5017001;28;20218;-74
2021/08/23 00:54:49;;;;;;;7.95;3.03;;;17.30;99.90;;;;;;5016578;28;20160;-76
2021/08/23 00:57:15;;;;;;;5.88;3.28;;;17.30;99.90;;;;;;5003225;28;20033;-75
2021/08/23 00:59:43;;;;;;;3.72;1.75;;;17.30;99.90;;;;;;4993910;28;20118;-77
2021/08/23 01:02:31;;;;;;;9.00;3.53;;;17.30;99.90;;;;;;5015274;28;20026;-77
2021/08/23 01:05:20;;;;;;;6.47;2.50;;;17.30;99.90;;;;;;4987476;28;20046;-77
2021/08/23 01:07:53;;;;;;;4.95;2.20;;;17.30;99.90;;;;;;5010279;28;20030;-77
2021/08/23 01:10:31;;;;;;;10.85;2.28;;;17.30;99.90;;;;;;4998660;28;20055;-76
2021/08/23 01:12:58;;;;;;;4.95;2.28;;;17.40;99.90;;;;;;5016915;28;20038;-78
2021/08/23 01:15:24;;;;;;;5.97;2.35;;;17.40;99.90;;;;;;5023263;28;20026;-75
2021/08/23 01:17:50;;;;;;;7.25;3.15;;;17.40;99.90;;;;;;4991139;28;20077;-75
2021/08/23 01:20:17;;;;;;;4.22;2.38;;;17.40;99.90;;;;;;5016045;28;20048;-75
2021/08/23 01:22:47;;;;;;;5.50;2.22;;;17.40;99.90;;;;;;4994695;28;20061;-75
2021/08/23 01:25:26;;;;;;;5.95;2.60;;;17.40;99.90;;;;;;5009073;28;20084;-76
2021/08/23 01:28:01;;;;;;;3.47;1.90;;;17.40;99.90;;;;;;5009073;28;20525;-77
2021/08/23 01:30:33;;;;;;;6.07;2.10;;;17.40;99.90;;;;;;5015868;28;20368;-77
2021/08/23 01:32:59;;;;;;;5.88;2.35;;;17.40;99.90;;;;;;5015929;28;20026;-76
2021/08/23 01:35:25;;;;;;;5.07;1.83;;;17.30;99.90;;;;;;4998551;28;20033;-78
2021/08/23 01:37:51;;;;;;;6.05;2.13;;;17.30;99.90;;;;;;4998114;28;20022;-75
2021/08/23 01:40:17;;;;;;;4.38;2.00;;;17.30;99.90;;;;;;4987864;28;20026;-75
2021/08/23 01:42:43;;;;;;;4.30;2.40;;;17.30;99.90;;;;;;4995420;28;20750;-75
2021/08/23 01:45:09;;;;;;;5.50;2.28;;;17.30;99.90;;;;;;4998343;28;21306;-77
2021/08/23 01:47:34;;;;;;;5.07;2.20;;;17.30;99.90;;;;;;5006397;28;20038;-76
2021/08/23 01:50:01;;;;;;;3.00;1.58;;;17.20;99.90;;;;;;5000425;28;20392;-76
2021/08/23 01:52:27;;;;;;;4.90;2.08;;;17.30;99.90;;;;;;4997336;28;20034;-75
2021/08/23 01:54:52;;;;;;;4.35;1.90;;;17.30;99.90;;;;;;5015372;28;20033;-74
2021/08/23 01:57:19;;;;;;;5.20;2.03;;;17.80;99.90;;;;;;4998098;28;20025;-77
2021/08/23 01:59:48;;;;;;;4.15;1.80;;;17.20;99.90;;;;;;5016303;28;20026;-74
2021/08/23 02:02:14;;;;;;;4.68;2.10;;;17.30;99.90;;;;;;5016205;28;20037;-74
2021/08/23 02:04:39;;;;;;;4.38;1.95;;;17.30;99.90;;;;;;5007470;28;20033;-76
2021/08/23 02:07:05;;;;;;;5.95;1.90;;;17.30;99.90;;;;;;5017163;28;20430;-76
2021/08/23 02:09:30;;;;;;;11.30;2.35;;;17.20;99.90;;;;;;4997505;28;20041;-77
2021/08/23 02:11:56;;;;;;;4.88;2.20;;;17.30;99.90;;;;;;5001483;28;20029;-74
2021/08/23 02:14:22;;;;;;;5.45;2.13;;;17.10;99.90;;;;;;5014466;28;20428;-76
2021/08/23 02:16:48;;;;;;;4.13;1.90;;;17.20;99.90;;;;;;4996472;28;20045;-77
2021/08/23 02:19:13;;;;;;;6.78;2.17;;;17.20;99.90;;;;;;4995415;28;20472;-76
2021/08/23 02:21:46;;;;;;;4.60;1.98;;;17.30;99.90;;;;;;4995813;28;20507;-76
2021/08/23 02:24:12;;;;;;;5.85;2.00;;;17.10;99.90;;;;;;4993871;28;20053;-77
2021/08/23 02:26:37;;;;;;;5.07;1.95;;;17.30;99.90;;;;;;5000555;28;20026;-76
2021/08/23 02:29:03;;;;;;;4.22;1.80;;;17.30;99.90;;;;;;4997222;28;20034;-75
2021/08/23 02:31:31;;;;;;;4.68;2.17;;;17.20;99.90;;;;;;4998908;28;20030;-75
2021/08/23 02:33:57;;;;;;;4.72;2.03;;;17.30;99.90;;;;;;5014847;28;20025;-74
2021/08/23 02:36:22;;;;;;;4.40;1.77;;;17.80;99.90;;;;;;5001342;28;20044;-77
2021/08/23 02:38:49;;;;;;;4.22;2.03;;;17.20;99.90;;;;;;5002691;28;20032;-75
2021/08/23 02:41:15;;;;;;;6.25;2.60;;;17.10;99.90;;;;;;4999400;28;20036;-76
2021/08/23 02:43:41;;;;;;;5.47;2.47;;;17.10;99.90;;;;;;4998065;28;20026;-77
2021/08/23 02:46:07;;;;;;;5.22;2.25;;;17.10;99.90;;;;;;5011348;28;20472;-76
2021/08/23 02:48:32;;;;;;;6.55;2.78;;;15.50;99.90;;;;;;5002744;28;20032;-74
2021/08/23 02:50:58;;;;;;;5.28;2.25;;;17.80;99.90;;;;;;5013703;28;20026;-74
2021/08/23 02:53:23;;;;;;;5.43;2.08;;;17.20;99.90;;;;;;4996868;28;20044;-77
2021/08/23 02:55:49;;;;;;;7.18;2.50;;;17.60;99.90;;;;;;5016984;28;20494;-75
2021/08/23 02:58:15;;;;;;;4.18;2.22;;;17.20;99.90;;;;;;5010064;28;20061;-75
2021/08/23 03:00:41;;;;;;;4.63;2.45;;;17.10;99.90;;;;;;5015481;28;20072;-76
2021/08/23 03:03:06;;;;;;;5.60;2.60;;;17.10;99.90;;;;;;5013823;28;20029;-74
2021/08/23 03:05:32;;;;;;;5.82;2.53;;;17.00;99.90;;;;;;4996125;28;20075;-75
2021/08/23 03:07:57;;;;;;;3.58;2.00;;;17.30;99.90;;;;;;4993874;28;20641;-75
2021/08/23 03:10:23;;;;;;;4.70;2.42;;;17.90;99.90;;;;;;4998445;28;20029;-75
2021/08/23 03:12:49;;;;;;;3.97;2.40;;;16.90;99.90;;;;;;4994951;28;20479;-75
2021/08/23 03:15:14;;;;;;;7.80;2.30;;;17.50;99.90;;;;;;4995486;28;20510;-75
2021/08/23 03:17:40;;;;;;;5.03;2.55;;;17.00;99.90;;;;;;4986257;28;20056;-74
2021/08/23 03:20:06;;;;;;;5.95;2.70;;;16.80;99.90;;;;;;4992239;28;20046;-75
2021/08/23 03:22:32;;;;;;;5.53;2.50;;;16.80;99.90;;;;;;5013070;28;20442;-77
2021/08/23 03:24:57;;;;;;;3.92;2.20;;;16.80;99.90;;;;;;4997271;28;20053;-77
2021/08/23 03:27:23;;;;;;;4.55;2.58;;;16.80;99.90;;;;;;5013938;28;20389;-77
2021/08/23 03:29:51;;;;;;;5.82;2.10;;;16.80;99.90;;;;;;4994820;28;20037;-76
2021/08/23 03:32:17;;;;;;;4.78;2.65;;;16.80;99.90;;;;;;5010982;28;20036;-78
2021/08/23 03:34:43;;;;;;;7.15;3.45;;;16.90;99.90;;;;;;5013946;28;20476;-74
2021/08/23 03:37:09;;;;;;;7.20;2.70;;;16.90;99.90;;;;;;5003404;28;20025;-75
2021/08/23 03:39:34;;;;;;;5.38;2.40;;;16.80;99.90;;;;;;5013698;28;20018;-75
2021/08/23 03:42:00;;;;;;;5.80;2.75;;;16.70;99.90;;;;;;5012808;28;20022;-77
2021/08/23 03:44:26;;;;;;;6.38;2.80;;;16.70;99.90;;;;;;4995974;28;20333;-75
2021/08/23 03:46:54;;;;;;;4.90;2.85;;;16.70;99.90;;;;;;5013523;28;20026;-76
2021/08/23 03:49:20;;;;;;;5.68;2.70;;;16.70;99.90;;;;;;5009975;28;20054;-76
2021/08/23 03:51:46;;;;;;;5.57;3.15;;;16.60;99.90;;;;;;5013055;28;20049;-75
2021/08/23 03:54:12;;;;;;;6.78;2.60;;;16.60;99.90;;;;;;5013383;28;20117;-77
2021/08/23 03:56:37;;;;;;;4.78;2.47;;;16.60;99.90;;;;;;5000497;28;20204;-77
2021/08/23 03:59:03;;;;;;;6.68;2.60;;;16.70;99.90;;;;;;5012548;28;20091;-77
2021/08/23 04:01:29;;;;;;;4.35;2.58;;;16.70;99.90;;;;;;5012690;28;20041;-75
2021/08/23 04:03:54;;;;;;;5.15;2.55;;;16.70;99.90;;;;;;5011981;28;20042;-75
2021/08/23 04:06:20;;;;;;;4.25;2.00;;;17.00;99.90;;;;;;5004948;28;20095;-75
2021/08/23 04:08:45;;;;;;;5.10;3.10;;;16.70;99.90;;;;;;4997039;28;20118;-76
2021/08/23 04:11:14;;;;;;;5.30;2.28;;;16.80;99.90;;;;;;5005197;28;20053;-75
2021/08/23 04:13:41;;;;;;;3.92;2.38;;;17.20;99.90;;;;;;5016096;28;20026;-74
2021/08/23 04:16:11;;;;;;;4.53;2.80;;;16.70;99.90;;;;;;5012408;28;20117;-76
2021/08/23 04:18:36;;;;;;;6.50;3.05;;;16.80;99.90;;;;;;5002286;28;20074;-77
2021/08/23 04:21:02;;;;;;;5.45;2.70;;;16.70;99.90;;;;;;5035028;28;20025;-76
2021/08/23 04:23:28;;;;;;;5.93;2.85;;;16.70;99.90;;;;;;5012092;28;20145;-77
2021/08/23 04:25:53;;;;;;;6.03;2.70;;;16.80;99.90;;;;;;5003705;28;20026;-77
2021/08/23 04:28:19;;;;;;;6.60;3.50;;;16.70;99.90;;;;;;5017014;28;20029;-73
2021/08/23 04:30:44;;;;;;;5.82;2.83;;;16.70;99.90;;;;;;5016283;28;20464;-77
2021/08/23 04:33:10;;;;;;;7.60;3.30;;;16.70;99.90;;;;;;4999111;28;20531;-77
2021/08/23 04:35:36;;;;;;;4.82;2.67;;;16.70;99.90;;;;;;5000102;28;20038;-79
2021/08/23 04:38:01;;;;;;;4.78;2.67;;;16.70;99.90;;;;;;5008651;28;20030;-75
2021/08/23 04:40:27;;;;;;;5.53;3.03;;;16.60;99.90;;;;;;5015751;28;20026;-75
2021/08/23 04:42:52;;;;;;;5.35;3.08;;;17.30;99.90;;;;;;5013940;28;20046;-76
2021/08/23 04:45:18;;;;;;;8.23;3.92;;;17.70;99.90;;;;;;5001680;28;20045;-76
2021/08/23 04:47:44;;;;;;;4.68;2.80;;;16.50;99.90;;;;;;5004694;28;20041;-77
2021/08/23 04:50:10;;;;;;;6.03;2.97;;;16.40;99.90;;;;;;5006219;28;20025;-75
2021/08/23 04:52:43;;;;;;;6.20;3.13;;;16.50;99.90;;;;;;4997408;28;20141;-75
2021/08/23 04:55:09;;;;;;;5.88;3.53;;;16.40;99.90;;;;;;5000024;28;20518;-78
2021/08/23 04:57:35;;;;;;;4.97;3.25;;;16.40;99.90;;;;;;4988727;28;20025;-76
2021/08/23 05:00:00;;;;;;;5.20;3.28;;;16.40;99.90;;;;;;5025381;28;20026;-76
2021/08/23 05:02:26;;;;;;;6.22;3.40;;;16.40;99.90;;;;;;5002667;28;20526;-75
2021/08/23 05:04:51;;;;;;;4.70;3.38;;;16.30;99.90;;;;;;5006675;28;20160;-77
2021/08/23 05:07:17;;;;;;;6.90;3.72;;;16.30;99.90;;;;;;4996666;28;20030;-75
2021/08/23 05:09:42;;;;;;;6.15;3.40;;;16.40;99.90;;;;;;5009835;28;20077;-76
2021/08/23 05:12:08;;;;;;;6.68;3.40;;;16.30;99.90;;;;;;5011620;28;20022;-75
2021/08/23 05:14:34;;;;;;;7.95;3.78;;;16.40;99.90;;;;;;5018072;28;20115;-77
2021/08/23 05:16:59;;;;;;;7.40;3.60;;;17.00;99.90;;;;;;5000128;28;20365;-75
2021/08/23 05:19:25;;;;;;;6.80;4.00;;;16.40;99.90;;;;;;5014013;28;20080;-76
2021/08/23 05:21:50;;;;;;;6.78;4.05;;;16.30;99.90;;;;;;5012778;28;20088;-77
2021/08/23 05:24:16;;;;;;;7.63;3.95;;;16.30;99.90;;;;;;4997398;28;20022;-75
2021/08/23 05:26:41;;;;;;;5.97;3.80;;;16.20;99.90;;;;;;5015624;28;20032;-76
2021/08/23 05:29:07;;;;;;;7.68;3.70;;;16.30;99.90;;;;;;5016825;28;20034;-75
2021/08/23 05:31:33;;;;;;;6.57;4.22;;;16.20;99.90;;;;;;5014219;28;20037;-76
2021/08/23 05:33:58;;;;;;;7.03;4.30;;;16.30;99.90;;;;;;5013342;28;20443;-75
2021/08/23 05:36:24;;;;;;;6.25;3.90;;;16.30;99.90;;;;;;4999762;28;20073;-75
2021/08/23 05:38:50;;;;;;;7.25;4.38;;;16.30;99.90;;;;;;4999535;28;20472;-76
2021/08/23 05:41:15;;;;;;;8.48;4.38;;;16.50;99.90;;;;;;5000529;28;20014;-76
2021/08/23 05:43:41;;;;;;;7.07;4.50;;;16.40;99.90;;;;;;4999064;28;20022;-75
2021/08/23 05:46:06;;;;;;;6.97;4.32;;;17.30;99.90;;;;;;4985730;28;20057;-76
2021/08/23 05:48:32;;;;;;;7.43;4.22;;;16.40;99.90;;;;;;5016448;28;20030;-78
2021/08/23 05:50:58;;;;;;;7.05;4.13;;;16.40;99.90;;;;;;5013936;28;20018;-77
2021/08/23 05:53:24;;;;;;;5.85;3.80;;;16.40;99.90;;;;;;4995868;28;20030;-77
2021/08/23 05:55:49;;;;;;;7.15;4.32;;;16.40;99.90;;;;;;4981901;28;20030;-77
2021/08/23 05:58:15;;;;;;;7.47;4.75;;;17.40;99.90;;;;;;5012551;28;20018;-75
2021/08/23 06:00:41;;;;;;;6.25;4.05;;;16.60;99.90;;;;;;4996981;28;20022;-77
2021/08/23 06:03:06;;;;;;;6.15;4.00;;;16.60;99.90;;;;;;5016156;28;20025;-76
2021/08/23 06:05:32;;;;;;;7.32;4.10;;;16.60;99.90;;;;;;5007355;28;20033;-75
2021/08/23 06:07:58;;;;;;;9.45;5.13;;;16.70;99.90;;;;;;5002032;28;20030;-76
2021/08/23 06:10:23;;;;;;;7.00;4.40;;;16.70;99.90;;;;;;5001221;28;20068;-75
2021/08/23 06:12:49;;;;;;;7.20;4.47;;;17.00;99.90;;;;;;4995913;28;20065;-77
2021/08/23 06:15:14;;;;;;;8.98;4.63;;;16.70;99.90;;;;;;4993789;28;20014;-75
2021/08/23 06:17:40;;;;;;;6.70;4.25;;;16.70;99.90;;;;;;5014093;28;20499;-77
2021/08/23 06:20:07;;;;;;;7.13;4.90;;;16.70;99.90;;;;;;4995762;28;20054;-75
2021/08/23 06:22:32;;;;;;;9.85;6.40;;;16.70;99.90;;;;;;4994754;28;20033;-78
2021/08/23 06:24:58;;;;;;;7.80;4.53;;;16.60;99.90;;;;;;4994438;28;20030;-78
2021/08/23 06:27:24;;;;;;;7.50;5.25;;;16.60;99.90;;;;;;5008264;28;20029;-74
2021/08/23 06:29:50;;;;;;;7.05;4.93;;;16.70;99.90;;;;;;4985161;28;20093;-76
2021/08/23 06:32:15;;;;;;;9.95;5.28;;;16.70;99.90;;;;;;5011715;28;20029;-78
2021/08/23 06:34:41;;;;;;;9.50;5.10;;;17.00;99.90;;;;;;5013234;28;20410;-76
2021/08/23 06:37:07;;;;;;;8.32;4.75;;;16.80;99.90;;;;;;5004853;28;20028;-77
2021/08/23 06:39:32;;;;;;;7.28;5.28;;;16.90;99.90;;;;;;5013227;28;20026;-78
2021/08/23 06:41:58;;;;;;;8.95;5.90;;;17.80;99.90;;;;;;4993980;28;20050;-78
2021/08/23 06:44:23;;;;;;;10.00;5.65;;;17.40;99.90;;;;;;5005681;28;20452;-77
2021/08/23 06:46:49;;;;;;;9.10;5.53;;;16.90;99.90;;;;;;5013755;28;20395;-75
2021/08/23 06:49:14;;;;;;;8.50;5.95;;;16.90;99.90;;;;;;4998936;28;20026;-76
2021/08/23 06:51:40;;;;;;;7.75;5.53;;;16.90;99.90;;;;;;5006130;28;20029;-76
2021/08/23 06:54:06;;;;;;;11.68;6.28;;;16.90;99.90;;;;;;5004569;28;20036;-77
2021/08/23 06:56:31;;;;;;;11.02;6.65;;;17.00;99.90;;;;;;4995320;28;20029;-79
2021/08/23 06:58:57;;;;;;;10.68;6.38;;;16.90;99.90;;;;;;5015038;28;20034;-78
2021/08/23 07:01:27;;;;;;;12.07;7.45;;;17.00;99.90;;;;;;5006621;28;20029;-78
2021/08/23 07:03:53;;;;;;;13.00;7.28;;;17.00;99.90;;;;;;5010329;28;20112;-77
2021/08/23 07:06:19;;;;;;;12.00;6.68;;;17.00;99.90;;;;;;5002364;28;20033;-80
2021/08/23 07:08:45;;;;;;;12.93;7.43;;;17.10;99.90;;;;;;4996625;28;20418;-78
2021/08/23 07:11:11;;;;;;;11.75;7.35;;;17.10;99.90;;;;;;4993979;28;20085;-77
2021/08/23 07:13:38;;;;;;;11.98;7.07;;;17.20;99.90;;;;;;4994636;28;20036;-78
2021/08/23 07:16:04;;;;;;;12.40;7.35;;;17.20;99.90;;;;;;4994010;28;20495;-76
2021/08/23 07:18:30;;;;;;;12.27;6.97;;;17.20;99.90;;;;;;4993244;28;20419;-75
2021/08/23 07:20:56;;;;;;;11.68;7.75;;;17.20;99.90;;;;;;4995914;28;20022;-76
2021/08/23 07:23:22;;;;;;;12.90;8.30;;;17.20;99.90;;;;;;4994571;28;20072;-76
2021/08/23 07:25:48;;;;;;;12.80;7.75;;;17.20;99.90;;;;;;4999453;28;20613;-76
2021/08/23 07:28:13;;;;;;;13.65;8.10;;;17.30;99.90;;;;;;4997391;28;20026;-76
2021/08/23 07:30:43;;;;;;;14.05;8.82;;;17.30;99.90;;;;;;5000895;28;20033;-79
2021/08/23 07:33:08;;;;;;;13.88;8.57;;;17.30;99.90;;;;;;5013397;28;20022;-77
2021/08/23 07:35:35;;;;;;;11.48;7.82;;;17.40;99.90;;;;;;4995893;28;20519;-77
2021/08/23 07:38:00;;;;;;;14.50;8.65;;;17.40;99.90;;;;;;5012990;28;20037;-78
2021/08/23 07:40:26;;;;;;;16.83;10.20;;;17.40;99.90;;;;;;5002277;28;20079;-78
2021/08/23 07:42:51;;;;;;;13.32;8.55;;;17.50;99.90;;;;;;5000266;28;20120;-77
2021/08/23 07:45:18;;;;;;;13.32;8.82;;;17.50;99.90;;;;;;5000413;28;20025;-78
2021/08/23 07:47:44;;;;;;;15.45;9.23;;;18.40;99.90;;;;;;5004559;28;20029;-78
2021/08/23 07:50:12;;;;;;;18.88;8.68;;;17.60;99.90;;;;;;5008339;28;20037;-76
2021/08/23 07:52:40;;;;;;;14.98;9.27;;;17.60;99.90;;;;;;5021211;28;20068;-79
2021/08/23 07:55:08;;;;;;;11.80;8.13;;;18.30;99.90;;;;;;5026215;28;20035;-79
2021/08/23 07:57:40;;;;;;;13.30;8.45;;;17.70;99.90;;;;;;5001537;28;20065;-76
2021/08/23 08:00:06;;;;;;;13.15;8.55;;;17.70;99.90;;;;;;5015486;28;20491;-79
2021/08/23 08:02:32;;;;;;;16.77;8.90;;;17.90;99.90;;;;;;5016662;28;20037;-77
2021/08/23 08:04:57;;;;;;;13.43;8.25;;;17.90;99.90;;;;;;5005626;28;20038;-76
2021/08/23 08:07:23;;;;;;;13.57;8.70;;;17.90;99.90;;;;;;5000656;28;20030;-78
2021/08/23 08:09:49;;;;;;;14.95;9.77;;;17.90;99.90;;;;;;5008595;28;20093;-77
2021/08/23 08:12:14;;;;;;;14.27;9.00;;;17.90;99.90;;;;;;5012361;28;20479;-77
2021/08/23 08:14:40;;;;;;;14.98;8.90;;;17.80;99.90;;;;;;5017436;28;20029;-78
2021/08/23 08:17:05;;;;;;;14.98;8.60;;;17.80;99.90;;;;;;5001814;28;20036;-78
2021/08/23 08:19:31;;;;;;;12.98;8.80;;;17.90;99.90;;;;;;5017142;28;20550;-78
2021/08/23 08:21:58;;;;;;;13.65;8.60;;;17.70;99.90;;;;;;5015189;28;20038;-78
2021/08/23 08:24:24;;;;;;;12.90;9.15;;;18.10;99.90;;;;;;5017943;28;20133;-77
2021/08/23 08:26:50;;;;;;;13.45;8.88;;;17.80;99.90;;;;;;5015293;28;20026;-77
2021/08/23 08:29:15;;;;;;;13.32;8.98;;;17.80;99.90;;;;;;4996838;28;20026;-77
2021/08/23 08:31:41;;;;;;;13.75;8.27;;;17.90;99.90;;;;;;4996954;28;20037;-76
2021/08/23 08:34:06;;;;;;;11.80;8.27;;;17.90;99.90;;;;;;5014655;28;20472;-76
2021/08/23 08:36:32;;;;;;;16.13;9.80;;;18.30;99.90;;;;;;5000024;28;20045;-78
2021/08/23 08:38:58;;;;;;;12.02;8.43;;;17.90;99.90;;;;;;5014534;28;20025;-76
2021/08/23 08:41:23;;;;;;;13.68;9.30;;;18.00;99.90;;;;;;4993828;28;20108;-76
2021/08/23 08:43:49;;;;;;;15.18;9.90;;;18.10;99.90;;;;;;5005442;28;20014;-76
2021/08/23 08:46:15;;;;;;;12.30;9.48;;;18.00;99.90;;;;;;5001740;28;20396;-77
2021/08/23 08:48:41;;;;;;;13.80;8.90;;;17.90;99.90;;;;;;5014257;28;20022;-77
2021/08/23 08:51:08;;;;;;;12.00;9.30;;;17.90;99.90;;;;;;5000483;28;20100;-78
2021/08/23 08:53:34;;;;;;;14.05;9.32;;;17.90;99.90;;;;;;5013892;28;20034;-75
2021/08/23 08:55:59;;;;;;;9.32;6.10;;;17.90;99.90;;;;;;5009114;28;20022;-77
2021/08/23 08:58:25;;;;;;;7.13;5.68;;;17.90;99.90;;;;;;4994476;28;20022;-76
2021/08/23 09:00:51;;;;;;;7.95;5.25;;;18.20;99.90;;;;;;5011729;28;20037;-77
2021/08/23 09:03:26;;;;;;;9.73;5.88;;;17.90;99.90;;;;;;5014094;28;20080;-77
2021/08/23 09:06:08;;;;;;;4.80;3.28;;;17.90;99.90;;;;;;5020625;28;20026;-76
2021/08/23 09:08:41;;;;;;;4.63;3.60;;;18.00;99.90;;;;;;4994363;28;20033;-77
2021/08/23 09:11:11;;;;;;;3.97;2.85;;;18.10;99.90;;;;;;4985815;28;20029;-78
2021/08/23 09:13:37;;;;;;;6.13;3.25;;;18.30;99.90;;;;;;5014831;28;20080;-78
2021/08/23 09:16:03;;;;;;;3.88;2.92;;;18.30;99.90;;;;;;5007527;28;20026;-76
2021/08/23 09:18:29;;;;;;;4.40;3.15;;;18.40;99.90;;;;;;4997320;28;20045;-78
2021/08/23 09:21:06;;;;;;;3.88;2.72;;;18.50;99.90;;;;;;4998818;28;20076;-75
2021/08/23 09:23:47;;;;;;;5.10;2.55;;;19.00;99.90;;;;;;4998674;28;20041;-79
2021/08/23 09:26:15;;;;;;;3.35;2.45;;;18.80;99.90;;;;;;5013859;28;20026;-77
2021/08/23 09:28:53;;;;;;;2.95;2.38;;;19.00;99.90;;;;;;5015975;28;20393;-76
2021/08/23 09:31:24;;;;;;;3.72;2.40;;;19.20;99.90;;;;;;5009962;28;20030;-76
2021/08/23 09:33:50;;;;;;;4.43;2.35;;;19.30;99.90;;;;;;5004840;28;20514;-76
2021/08/23 09:36:19;;;;;;;2.33;1.70;;;19.50;99.90;;;;;;5000013;28;20141;-77
2021/08/23 09:39:08;;;;;;;3.22;1.70;;;19.50;99.90;;;;;;5004385;28;20029;-76
2021/08/23 09:41:42;;;;;;;3.03;1.75;;;19.50;99.90;;;;;;5005357;28;20076;-77
2021/08/23 09:44:14;;;;;;;2.38;1.73;;;19.60;99.90;;;;;;4996003;28;20505;-77
2021/08/23 09:46:41;;;;;;;3.60;1.80;;;19.60;99.90;;;;;;4990319;28;20030;-77
2021/08/23 09:49:09;;;;;;;1.83;1.38;;;19.80;99.90;;;;;;5007521;28;20038;-76
2021/08/23 09:51:40;;;;;;;1.80;1.23;;;19.80;99.90;;;;;;4988083;28;20479;-76
2021/08/23 09:54:07;;;;;;;1.65;1.13;;;19.90;99.90;;;;;;5001380;28;20423;-75
2021/08/23 09:56:35;;;;;;;2.03;1.40;;;19.80;99.90;;;;;;4999990;28;20395;-78
2021/08/23 09:59:02;;;;;;;1.92;1.02;;;20.00;99.90;;;;;;5013539;28;20021;-77
2021/08/23 10:01:31;;;;;;;2.20;1.52;;;20.20;99.90;;;;;;5007450;28;20026;-77
2021/08/23 10:04:02;;;;;;;1.67;1.23;;;20.20;99.90;;;;;;4997446;28;20038;-78
2021/08/23 10:06:28;;;;;;;2.03;1.25;;;20.20;99.90;;;;;;5008485;28;20101;-78
2021/08/23 10:08:54;;;;;;;2.38;1.30;;;20.40;99.90;;;;;;4995696;28;20049;-79
2021/08/23 10:11:21;;;;;;;1.70;1.20;;;20.30;99.90;;;;;;5013445;28;20029;-78
2021/08/23 10:13:47;;;;;;;2.28;1.48;;;20.50;99.90;;;;;;4996115;28;20487;-79
2021/08/23 10:16:13;;;;;;;3.50;1.75;;;20.40;99.90;;;;;;4998518;28;20102;-78
2021/08/23 10:18:39;;;;;;;2.10;1.50;;;20.30;99.90;;;;;;5015818;28;20474;-78
2021/08/23 10:21:07;;;;;;;2.10;1.48;;;20.30;99.90;;;;;;4996379;28;20026;-78
2021/08/23 10:23:36;;;;;;;3.70;1.65;;;20.30;99.90;;;;;;5008660;28;20026;-78
2021/08/23 10:26:02;;;;;;;2.15;1.40;;;20.60;99.90;;;;;;5016135;28;20026;-78
2021/08/23 10:28:38;;;;;;;2.20;1.60;;;20.30;99.90;;;;;;4993801;28;20403;-78
2021/08/23 10:31:08;;;;;;;2.80;1.58;;;20.50;99.90;;;;;;4999280;28;20515;-78
2021/08/23 10:33:36;;;;;;;2.20;1.40;;;20.60;99.90;;;;;;5001784;28;20022;-79
2021/08/23 10:36:02;;;;;;;2.53;1.70;;;20.80;99.90;;;;;;4992886;28;20022;-77
2021/08/23 10:38:28;;;;;;;2.22;1.40;;;21.00;99.90;;;;;;4997515;28;20029;-77
2021/08/23 10:41:14;;;;;;;1.95;1.30;;;21.10;99.90;;;;;;5018715;28;20088;-75
2021/08/23 10:43:49;;;;;;;2.45;1.55;;;21.20;99.90;;;;;;5026190;28;20030;-77
2021/08/23 10:46:24;;;;;;;1.73;1.45;;;20.90;99.90;;;;;;4996584;28;20033;-77
2021/08/23 10:48:51;;;;;;;2.45;1.90;;;20.70;99.90;;;;;;4998622;28;20390;-77
2021/08/23 10:51:35;;;;;;;2.60;1.70;;;20.50;99.90;;;;;;4995687;28;20029;-77
2021/08/23 10:54:02;;;;;;;2.53;1.52;;;20.40;99.90;;;;;;4995177;28;20380;-78
2021/08/23 10:56:39;;;;;;;1.77;1.42;;;20.50;99.90;;;;;;4995599;28;20129;-78
2021/08/23 10:59:13;;;;;;;2.35;1.58;;;20.70;99.90;;;;;;4973422;28;20030;-79
2021/08/23 11:01:39;;;;;;;2.40;1.60;;;20.70;99.90;;;;;;5007999;28;20502;-76
2021/08/23 11:04:07;;;;;;;3.92;1.85;;;20.70;99.90;;;;;;4996021;28;20029;-76
2021/08/23 11:06:34;;;;;;;2.72;1.50;;;20.80;99.90;;;;;;5013639;28;20030;-76
2021/08/23 11:09:11;;;;;;;2.20;1.40;;;20.80;99.90;;;;;;5000341;28;20034;-78
2021/08/23 11:11:39;;;;;;;2.00;1.30;;;20.90;99.90;;;;;;4993780;28;20571;-76
2021/08/23 11:14:18;;;;;;;2.15;1.50;;;21.00;99.90;;;;;;4995964;28;20026;-78
2021/08/23 11:16:51;;;;;;;2.50;1.60;;;21.00;99.90;;;;;;5011632;28;20029;-75
2021/08/23 11:19:22;;;;;;;2.60;1.70;;;21.00;99.90;;;;;;4996583;28;20060;-76
2021/08/23 11:21:59;;;;;;;3.15;1.60;;;21.10;99.90;;;;;;4996708;28;20088;-76
2021/08/23 11:24:29;;;;;;;2.42;1.60;;;21.10;99.90;;;;;;4995325;28;20498;-77
2021/08/23 11:27:00;;;;;;;2.60;1.70;;;21.10;99.90;;;;;;5012268;28;20038;-78
2021/08/23 11:29:25;;;;;;;2.28;1.35;;;21.00;99.90;;;;;;5012566;28;20048;-77
2021/08/23 11:31:59;;;;;;;1.98;1.40;;;22.10;99.90;;;;;;5011915;28;20454;-78
2021/08/23 11:34:26;;;;;;;2.42;1.73;;;21.30;99.90;;;;;;5012341;28;20018;-77
2021/08/23 11:36:52;;;;;;;9.35;4.70;;;21.40;99.90;;;;;;4997165;28;20026;-77
2021/08/23 11:39:18;;;;;;;3.10;1.77;;;21.50;99.90;;;;;;4995230;28;20023;-78
2021/08/23 11:41:54;;;;;;;2.28;1.73;;;21.60;99.90;;;;;;4999216;28;20034;-78
2021/08/23 11:44:20;;;;;;;1.95;1.40;;;21.80;99.90;;;;;;5012334;28;20395;-77
2021/08/23 11:47:03;;;;;;;4.55;1.48;;;21.90;99.90;;;;;;4993045;28;20029;-77
2021/08/23 11:49:38;;;;;;;6.00;1.70;;;22.00;99.90;;;;;;4986986;28;20033;-75
2021/08/23 11:52:10;;;;;;;7.25;1.80;;;22.00;99.90;;;;;;4997260;28;20030;-78
2021/08/23 11:54:36;;;;;;;10.75;2.30;;;21.80;99.90;;;;;;5007191;28;20025;-76
2021/08/23 11:57:08;;;;;;;2.70;1.73;;;21.90;99.90;;;;;;5011927;28;20451;-79
2021/08/23 11:59:34;;;;;;;3.88;1.50;;;22.00;99.90;;;;;;4998898;28;20021;-78
2021/08/23 12:02:12;;;;;;;1.15;1.00;;;22.30;99.90;;;;;;5011930;28;20072;-77
2021/08/23 12:04:39;;;;;;;2.00;1.40;;;22.40;99.90;;;;;;5011681;28;20501;-78
2021/08/23 12:07:05;;;;;;;1.70;1.20;;;22.60;99.70;;;;;;4996683;28;20038;-77
2021/08/23 12:09:31;;;;;;;2.40;1.20;;;22.70;99.60;;;;;;5008123;28;20072;-76
2021/08/23 12:11:57;;;;;;;2.70;1.30;;;;;;;;;;5008862;28;20025;-75
2021/08/23 12:14:28;;;;;;;2.47;1.25;;;23.00;98.80;;;;;;4995122;28;20026;-75
2021/08/23 12:16:54;;;;;;;1.75;1.30;;;22.90;98.60;;;;;;5014751;28;20091;-79
2021/08/23 12:19:20;;;;;;;2.83;1.42;;;23.20;98.30;;;;;;5009921;28;20018;-77
2021/08/23 12:21:49;;;;;;;1.73;1.13;;;23.00;97.90;;;;;;4993888;28;20028;-77
2021/08/23 12:24:14;;;;;;;2.80;1.40;;;22.60;98.40;;;;;;4995746;28;20033;-77
2021/08/23 12:26:41;;;;;;;3.97;1.50;;;22.70;99.00;;;;;;4993396;28;20027;-78
2021/08/23 12:29:34;;;;;;;2.05;1.27;;;22.80;99.10;;;;;;4992413;28;20048;-77
2021/08/23 12:32:08;;;;;;;1.38;1.00;;;22.80;97.90;;;;;;4999290;28;20084;-78
2021/08/23 12:34:49;;;;;;;4.38;1.40;;;23.00;97.80;;;;;;4997954;28;20034;-76
2021/08/23 12:37:18;;;;;;;1.42;1.17;;;23.30;96.70;;;;;;4995015;28;20026;-78
2021/08/23 12:39:46;;;;;;;2.47;1.50;;;23.40;96.30;;;;;;4990723;28;20077;-75
2021/08/23 12:42:13;;;;;;;6.30;1.50;;;23.50;96.00;;;;;;4996678;28;20072;-77
2021/08/23 12:44:39;;;;;;;1.88;0.98;;;23.50;95.80;;;;;;5015930;28;20033;-75
2021/08/23 12:47:06;;;;;;;2.63;1.30;;;23.70;95.00;;;;;;4994487;28;20022;-76